X  Schließen METAR Luftfahrt Wetterdaten     EDDK Cologne Bonn Airport
Temperatur
13°C Temperatur
11°C Taupunkt
88% Feuchtigkeit



Wind
5 MPS
8 KM/S
2 M/S
4 KTS



210°
SSW
Aktuelle Wetterlage

Teilweise bewölkt Teilweise bewölkt
Luftdruck 1012.87 (hPa) - 29.91 (inHg)
Sichtweite 6 (Meile) - 9.7 (Km)
Flughafen
Flughafen Code EDDK

Position : Cologne Bonn Airport
Entfernung: 56 (mi)

Metar:
EDDK 130350Z AUTO 21004KT 9999 FEW016 BKN030 13/11 Q1013 NOSIG

Zeit: 2024-07-13 05:50 CEST